sensor_id;sensor_type;location;lat;lon;timestamp;pressure;altitude;pressure_sealevel;temperature;humidity
81509;BME280;70930;52.412;13.554;2023-12-20T00:00:20;100493.97;;;5.86;99.70
81509;BME280;70930;52.412;13.554;2023-12-20T00:02:46;100493.81;;;5.87;99.79
81509;BME280;70930;52.412;13.554;2023-12-20T00:05:13;100496.09;;;6.00;98.81
81509;BME280;70930;52.412;13.554;2023-12-20T00:07:39;100494.91;;;5.95;98.70
81509;BME280;70930;52.412;13.554;2023-12-20T00:10:04;100488.72;;;5.86;98.74
81509;BME280;70930;52.412;13.554;2023-12-20T00:12:30;100488.19;;;5.82;99.02
81509;BME280;70930;52.412;13.554;2023-12-20T00:14:55;100483.22;;;5.97;99.48
81509;BME280;70930;52.412;13.554;2023-12-20T00:17:21;100486.19;;;5.94;98.11
81509;BME280;70930;52.412;13.554;2023-12-20T00:19:46;100486.59;;;5.89;99.20
81509;BME280;70930;52.412;13.554;2023-12-20T00:22:13;100476.34;;;5.86;99.55
81509;BME280;70930;52.412;13.554;2023-12-20T00:24:42;100468.28;;;5.88;99.19
81509;BME280;70930;52.412;13.554;2023-12-20T00:27:07;100471.44;;;5.91;99.13
81509;BME280;70930;52.412;13.554;2023-12-20T00:29:33;100480.41;;;5.81;100.00
81509;BME280;70930;52.412;13.554;2023-12-20T00:31:58;100466.16;;;5.74;99.16
81509;BME280;70930;52.412;13.554;2023-12-20T00:34:24;100465.41;;;5.81;99.96
81509;BME280;70930;52.412;13.554;2023-12-20T00:36:49;100473.44;;;5.89;99.02
81509;BME280;70930;52.412;13.554;2023-12-20T00:39:15;100462.47;;;5.94;98.94
81509;BME280;70930;52.412;13.554;2023-12-20T00:41:40;100472.91;;;5.86;99.33
81509;BME280;70930;52.412;13.554;2023-12-20T00:44:05;100459.94;;;5.93;99.00
81509;BME280;70930;52.412;13.554;2023-12-20T00:46:31;100460.84;;;5.83;99.01
81509;BME280;70930;52.412;13.554;2023-12-20T00:48:56;100463.72;;;5.90;98.95
81509;BME280;70930;52.412;13.554;2023-12-20T00:51:22;100470.88;;;5.98;99.41
81509;BME280;70930;52.412;13.554;2023-12-20T00:53:49;100469.75;;;6.00;98.47
81509;BME280;70930;52.412;13.554;2023-12-20T00:56:15;100464.66;;;5.89;99.14
81509;BME280;70930;52.412;13.554;2023-12-20T00:58:40;100449.28;;;5.94;98.64
81509;BME280;70930;52.412;13.554;2023-12-20T01:01:05;100460.66;;;5.95;98.74
81509;BME280;70930;52.412;13.554;2023-12-20T01:03:31;100457.91;;;5.86;99.23
81509;BME280;70930;52.412;13.554;2023-12-20T01:05:56;100465.53;;;5.89;98.92
81509;BME280;70930;52.412;13.554;2023-12-20T01:08:22;100460.34;;;5.98;99.17
81509;BME280;70930;52.412;13.554;2023-12-20T01:10:47;100462.50;;;5.84;98.75
81509;BME280;70930;52.412;13.554;2023-12-20T01:13:13;100459.84;;;5.84;99.62
81509;BME280;70930;52.412;13.554;2023-12-20T01:15:38;100457.69;;;5.80;99.26
81509;BME280;70930;52.412;13.554;2023-12-20T01:18:04;100460.84;;;5.83;99.42
81509;BME280;70930;52.412;13.554;2023-12-20T01:20:29;100462.50;;;5.84;99.38
81509;BME280;70930;52.412;13.554;2023-12-20T01:22:54;100464.28;;;5.94;99.22
81509;BME280;70930;52.412;13.554;2023-12-20T01:25:20;100462.34;;;5.86;98.83
81509;BME280;70930;52.412;13.554;2023-12-20T01:27:45;100464.13;;;5.85;99.63
81509;BME280;70930;52.412;13.554;2023-12-20T01:30:10;100459.81;;;5.94;99.07
81509;BME280;70930;52.412;13.554;2023-12-20T01:32:36;100453.75;;;5.84;99.85
81509;BME280;70930;52.412;13.554;2023-12-20T01:35:01;100452.94;;;5.83;99.55
81509;BME280;70930;52.412;13.554;2023-12-20T01:37:26;100460.53;;;5.86;99.45
81509;BME280;70930;52.412;13.554;2023-12-20T01:39:54;100466.75;;;5.95;100.00
81509;BME280;70930;52.412;13.554;2023-12-20T01:42:19;100451.28;;;5.82;99.31
81509;BME280;70930;52.412;13.554;2023-12-20T01:44:44;100464.53;;;5.90;99.46
81509;BME280;70930;52.412;13.554;2023-12-20T01:47:10;100456.84;;;5.79;100.00
81509;BME280;70930;52.412;13.554;2023-12-20T01:49:35;100452.56;;;5.96;99.49
81509;BME280;70930;52.412;13.554;2023-12-20T01:52:01;100447.59;;;5.93;99.59
81509;BME280;70930;52.412;13.554;2023-12-20T01:54:26;100445.25;;;5.90;100.00
81509;BME280;70930;52.412;13.554;2023-12-20T01:56:52;100452.34;;;5.89;99.74
81509;BME280;70930;52.412;13.554;2023-12-20T01:59:19;100456.38;;;5.94;99.43
81509;BME280;70930;52.412;13.554;2023-12-20T02:01:45;100443.19;;;5.94;99.52
81509;BME280;70930;52.412;13.554;2023-12-20T02:04:10;100436.66;;;5.88;100.00
81509;BME280;70930;52.412;13.554;2023-12-20T02:06:37;100438.75;;;5.94;99.76
81509;BME280;70930;52.412;13.554;2023-12-20T02:09:05;100439.00;;;5.91;99.68
81509;BME280;70930;52.412;13.554;2023-12-20T02:11:30;100435.47;;;5.82;100.00
81509;BME280;70930;52.412;13.554;2023-12-20T02:13:56;100429.00;;;5.77;100.00
81509;BME280;70930;52.412;13.554;2023-12-20T02:16:22;100424.94;;;5.82;100.00
81509;BME280;70930;52.412;13.554;2023-12-20T02:18:47;100425.91;;;5.81;100.00
81509;BME280;70930;52.412;13.554;2023-12-20T02:21:12;100431.03;;;5.83;100.00
81509;BME280;70930;52.412;13.554;2023-12-20T02:23:38;100429.81;;;5.77;100.00
81509;BME280;70930;52.412;13.554;2023-12-20T02:26:04;100430.28;;;5.90;99.88
81509;BME280;70930;52.412;13.554;2023-12-20T02:28:30;100428.03;;;5.96;100.00
81509;BME280;70930;52.412;13.554;2023-12-20T02:30:57;100416.81;;;5.94;99.87
81509;BME280;70930;52.412;13.554;2023-12-20T02:33:22;100421.63;;;5.98;99.81
81509;BME280;70930;52.412;13.554;2023-12-20T02:35:47;100430.88;;;6.02;99.52
81509;BME280;70930;52.412;13.554;2023-12-20T02:38:13;100438.81;;;6.02;99.83
81509;BME280;70930;52.412;13.554;2023-12-20T02:40:38;100426.66;;;6.09;98.96
81509;BME280;70930;52.412;13.554;2023-12-20T02:43:03;100423.34;;;6.07;99.32
81509;BME280;70930;52.412;13.554;2023-12-20T02:45:29;100418.69;;;6.01;99.84
81509;BME280;70930;52.412;13.554;2023-12-20T02:47:55;100419.53;;;6.02;99.62
81509;BME280;70930;52.412;13.554;2023-12-20T02:50:20;100416.97;;;5.92;100.00
81509;BME280;70930;52.412;13.554;2023-12-20T02:52:45;100403.91;;;5.90;100.00
81509;BME280;70930;52.412;13.554;2023-12-20T02:55:11;100414.31;;;5.92;100.00
81509;BME280;70930;52.412;13.554;2023-12-20T02:57:36;100419.00;;;5.98;100.00
81509;BME280;70930;52.412;13.554;2023-12-20T03:00:10;100426.50;;;6.11;99.81
81509;BME280;70930;52.412;13.554;2023-12-20T03:02:36;100431.34;;;5.98;100.00
81509;BME280;70930;52.412;13.554;2023-12-20T03:05:01;100429.69;;;5.97;100.00
81509;BME280;70930;52.412;13.554;2023-12-20T03:07:27;100430.25;;;6.08;100.00
81509;BME280;70930;52.412;13.554;2023-12-20T03:09:52;100425.72;;;6.19;100.00
81509;BME280;70930;52.412;13.554;2023-12-20T03:12:17;100423.75;;;6.21;99.89
81509;BME280;70930;52.412;13.554;2023-12-20T03:14:43;100429.41;;;6.26;99.84
81509;BME280;70930;52.412;13.554;2023-12-20T03:17:09;100441.31;;;6.30;99.89
81509;BME280;70930;52.412;13.554;2023-12-20T03:19:34;100433.53;;;6.28;99.30
81509;BME280;70930;52.412;13.554;2023-12-20T03:22:00;100435.91;;;6.13;99.90
81509;BME280;70930;52.412;13.554;2023-12-20T03:24:26;100438.56;;;6.13;99.45
81509;BME280;70930;52.412;13.554;2023-12-20T03:26:51;100447.28;;;6.14;99.92
81509;BME280;70930;52.412;13.554;2023-12-20T03:29:17;100438.03;;;6.10;99.76
81509;BME280;70930;52.412;13.554;2023-12-20T03:31:42;100436.63;;;6.24;99.41
81509;BME280;70930;52.412;13.554;2023-12-20T03:34:07;100436.63;;;6.24;98.53
81509;BME280;70930;52.412;13.554;2023-12-20T03:36:32;100438.69;;;6.12;98.70
81509;BME280;70930;52.412;13.554;2023-12-20T03:38:58;100439.56;;;6.21;98.44
81509;BME280;70930;52.412;13.554;2023-12-20T03:41:23;100451.78;;;6.22;98.89
81509;BME280;70930;52.412;13.554;2023-12-20T03:43:48;100448.47;;;6.20;99.30
81509;BME280;70930;52.412;13.554;2023-12-20T03:46:14;100441.56;;;6.19;98.55
81509;BME280;70930;52.412;13.554;2023-12-20T03:48:39;100445.28;;;6.34;97.76
81509;BME280;70930;52.412;13.554;2023-12-20T03:51:04;100450.19;;;6.29;97.37
81509;BME280;70930;52.412;13.554;2023-12-20T03:53:30;100448.81;;;6.25;97.51
81509;BME280;70930;52.412;13.554;2023-12-20T03:55:55;100436.22;;;6.10;98.33
81509;BME280;70930;52.412;13.554;2023-12-20T03:58:20;100441.25;;;6.22;97.76
81509;BME280;70930;52.412;13.554;2023-12-20T04:00:46;100435.72;;;6.33;97.50
81509;BME280;70930;52.412;13.554;2023-12-20T04:03:11;100427.66;;;6.34;96.40
81509;BME280;70930;52.412;13.554;2023-12-20T04:05:40;100416.88;;;6.28;95.98
81509;BME280;70930;52.412;13.554;2023-12-20T04:08:05;100419.78;;;6.17;97.25
81509;BME280;70930;52.412;13.554;2023-12-20T04:10:31;100428.06;;;6.22;97.48
81509;BME280;70930;52.412;13.554;2023-12-20T04:12:56;100420.47;;;6.19;96.53
81509;BME280;70930;52.412;13.554;2023-12-20T04:15:21;100420.94;;;6.14;96.28
81509;BME280;70930;52.412;13.554;2023-12-20T04:17:47;100418.13;;;6.15;97.29
81509;BME280;70930;52.412;13.554;2023-12-20T04:20:12;100416.00;;;6.19;96.65
81509;BME280;70930;52.412;13.554;2023-12-20T04:22:37;100403.25;;;6.06;97.00
81509;BME280;70930;52.412;13.554;2023-12-20T04:25:03;100412.72;;;6.17;97.14
81509;BME280;70930;52.412;13.554;2023-12-20T04:27:31;100403.03;;;6.26;96.21
81509;BME280;70930;52.412;13.554;2023-12-20T04:29:56;100409.59;;;6.22;96.51
81509;BME280;70930;52.412;13.554;2023-12-20T04:32:22;100399.97;;;6.12;96.30
81509;BME280;70930;52.412;13.554;2023-12-20T04:34:47;100407.75;;;6.14;96.44
81509;BME280;70930;52.412;13.554;2023-12-20T04:37:30;100410.66;;;6.29;95.46
81509;BME280;70930;52.412;13.554;2023-12-20T04:39:55;100410.00;;;5.91;96.03
81509;BME280;70930;52.412;13.554;2023-12-20T04:42:21;100417.41;;;6.05;96.04
81509;BME280;70930;52.412;13.554;2023-12-20T04:44:46;100417.91;;;5.91;95.76
81509;BME280;70930;52.412;13.554;2023-12-20T04:47:12;100406.28;;;5.94;96.78
81509;BME280;70930;52.412;13.554;2023-12-20T04:49:40;100403.53;;;6.03;95.85
81509;BME280;70930;52.412;13.554;2023-12-20T04:52:05;100407.81;;;6.04;95.11
81509;BME280;70930;52.412;13.554;2023-12-20T04:54:31;100417.47;;;6.13;94.87
81509;BME280;70930;52.412;13.554;2023-12-20T04:56:56;100419.47;;;5.94;95.66
81509;BME280;70930;52.412;13.554;2023-12-20T04:59:22;100404.47;;;5.76;96.69
81509;BME280;70930;52.412;13.554;2023-12-20T05:01:47;100411.66;;;6.10;95.81
81509;BME280;70930;52.412;13.554;2023-12-20T05:04:13;100413.25;;;5.85;95.92
81509;BME280;70930;52.412;13.554;2023-12-20T05:06:38;100407.09;;;5.76;96.70
81509;BME280;70930;52.412;13.554;2023-12-20T05:09:03;100407.13;;;5.94;95.18
81509;BME280;70930;52.412;13.554;2023-12-20T05:11:31;100407.38;;;5.73;95.74
81509;BME280;70930;52.412;13.554;2023-12-20T05:13:56;100405.81;;;5.80;94.93
81509;BME280;70930;52.412;13.554;2023-12-20T05:16:22;100419.34;;;5.50;95.78
81509;BME280;70930;52.412;13.554;2023-12-20T05:18:48;100415.00;;;5.40;95.91
81509;BME280;70930;52.412;13.554;2023-12-20T05:21:15;100423.88;;;5.39;95.35
81509;BME280;70930;52.412;13.554;2023-12-20T05:23:45;100424.34;;;5.35;95.42
81509;BME280;70930;52.412;13.554;2023-12-20T05:26:11;100411.19;;;5.35;95.20
81509;BME280;70930;52.412;13.554;2023-12-20T05:28:39;100410.94;;;5.28;95.15
81509;BME280;70930;52.412;13.554;2023-12-20T05:31:04;100424.63;;;5.32;94.84
81509;BME280;70930;52.412;13.554;2023-12-20T05:33:30;100418.88;;;5.18;95.52
81509;BME280;70930;52.412;13.554;2023-12-20T05:35:58;100419.13;;;5.25;95.99
81509;BME280;70930;52.412;13.554;2023-12-20T05:38:23;100417.84;;;5.29;95.02
81509;BME280;70930;52.412;13.554;2023-12-20T05:40:49;100429.53;;;5.27;95.94
81509;BME280;70930;52.412;13.554;2023-12-20T05:43:14;100435.22;;;5.22;95.63
81509;BME280;70930;52.412;13.554;2023-12-20T05:45:39;100426.34;;;5.23;95.37
81509;BME280;70930;52.412;13.554;2023-12-20T05:48:05;100418.78;;;5.10;95.74
81509;BME280;70930;52.412;13.554;2023-12-20T05:50:30;100419.31;;;5.14;95.41
81509;BME280;70930;52.412;13.554;2023-12-20T05:52:55;100428.78;;;5.07;95.50
81509;BME280;70930;52.412;13.554;2023-12-20T05:55:21;100413.44;;;5.02;94.80
81509;BME280;70930;52.412;13.554;2023-12-20T05:57:47;100424.50;;;5.06;94.94
81509;BME280;70930;52.412;13.554;2023-12-20T06:00:13;100422.56;;;5.08;94.50
81509;BME280;70930;52.412;13.554;2023-12-20T06:02:39;100411.63;;;5.03;94.42
81509;BME280;70930;52.412;13.554;2023-12-20T06:05:05;100406.25;;;5.04;94.17
81509;BME280;70930;52.412;13.554;2023-12-20T06:07:30;100403.69;;;5.12;93.39
81509;BME280;70930;52.412;13.554;2023-12-20T06:09:56;100402.97;;;4.92;93.93
81509;BME280;70930;52.412;13.554;2023-12-20T06:12:21;100412.97;;;4.89;94.19
81509;BME280;70930;52.412;13.554;2023-12-20T06:14:46;100401.53;;;4.80;94.66
81509;BME280;70930;52.412;13.554;2023-12-20T06:17:11;100402.91;;;4.75;94.95
81509;BME280;70930;52.412;13.554;2023-12-20T06:19:37;100397.47;;;4.86;94.31
81509;BME280;70930;52.412;13.554;2023-12-20T06:22:03;100395.00;;;4.84;94.04
81509;BME280;70930;52.412;13.554;2023-12-20T06:24:28;100398.56;;;4.83;93.65
81509;BME280;70930;52.412;13.554;2023-12-20T06:26:54;100396.28;;;4.80;93.69
81509;BME280;70930;52.412;13.554;2023-12-20T06:29:20;100396.00;;;4.74;93.84
81509;BME280;70930;52.412;13.554;2023-12-20T06:31:45;100402.28;;;4.63;94.54
81509;BME280;70930;52.412;13.554;2023-12-20T06:34:10;100401.00;;;4.67;93.88
81509;BME280;70930;52.412;13.554;2023-12-20T06:36:36;100407.22;;;4.76;93.39
81509;BME280;70930;52.412;13.554;2023-12-20T06:39:01;100409.44;;;4.71;93.94
81509;BME280;70930;52.412;13.554;2023-12-20T06:41:27;100405.72;;;4.63;94.38
81509;BME280;70930;52.412;13.554;2023-12-20T06:43:53;100401.91;;;4.58;93.67
81509;BME280;70930;52.412;13.554;2023-12-20T06:46:18;100408.53;;;4.62;94.30
81509;BME280;70930;52.412;13.554;2023-12-20T06:48:43;100409.88;;;4.66;93.91
81509;BME280;70930;52.412;13.554;2023-12-20T06:51:14;100414.50;;;4.54;94.50
81509;BME280;70930;52.412;13.554;2023-12-20T06:53:40;100408.03;;;4.49;93.71
81509;BME280;70930;52.412;13.554;2023-12-20T06:56:05;100397.75;;;4.55;93.49
81509;BME280;70930;52.412;13.554;2023-12-20T06:58:31;100401.91;;;4.58;94.12
81509;BME280;70930;52.412;13.554;2023-12-20T07:00:56;100400.81;;;4.51;93.78
81509;BME280;70930;52.412;13.554;2023-12-20T07:03:21;100397.34;;;4.60;93.65
81509;BME280;70930;52.412;13.554;2023-12-20T07:05:47;100393.19;;;4.57;93.50
81509;BME280;70930;52.412;13.554;2023-12-20T07:08:12;100398.88;;;4.53;94.60
81509;BME280;70930;52.412;13.554;2023-12-20T07:10:39;100409.94;;;4.56;95.21
81509;BME280;70930;52.412;13.554;2023-12-20T07:13:05;100393.81;;;4.41;95.05
81509;BME280;70930;52.412;13.554;2023-12-20T07:15:31;100400.56;;;4.44;95.54
81509;BME280;70930;52.412;13.554;2023-12-20T07:17:56;100384.66;;;4.36;95.70
81509;BME280;70930;52.412;13.554;2023-12-20T07:20:21;100396.81;;;4.47;95.63
81509;BME280;70930;52.412;13.554;2023-12-20T07:22:47;100390.47;;;4.39;95.87
81509;BME280;70930;52.412;13.554;2023-12-20T07:25:12;100392.00;;;4.42;96.08
81509;BME280;70930;52.412;13.554;2023-12-20T07:27:38;100398.88;;;4.53;95.65
81509;BME280;70930;52.412;13.554;2023-12-20T07:30:03;100395.81;;;4.57;94.98
81509;BME280;70930;52.412;13.554;2023-12-20T07:32:29;100395.81;;;4.57;95.69
81509;BME280;70930;52.412;13.554;2023-12-20T07:34:55;100394.72;;;4.60;95.66
81509;BME280;70930;52.412;13.554;2023-12-20T07:37:20;100389.56;;;4.58;96.00
81509;BME280;70930;52.412;13.554;2023-12-20T07:39:46;100395.63;;;4.68;95.04
81509;BME280;70930;52.412;13.554;2023-12-20T07:42:11;100395.47;;;4.70;94.78
81509;BME280;70930;52.412;13.554;2023-12-20T07:44:37;100397.97;;;4.72;94.95
81509;BME280;70930;52.412;13.554;2023-12-20T07:47:02;100395.19;;;4.73;94.27
81509;BME280;70930;52.412;13.554;2023-12-20T07:49:28;100401.44;;;4.72;94.56
81509;BME280;70930;52.412;13.554;2023-12-20T07:51:53;100388.13;;;4.74;94.46
81509;BME280;70930;52.412;13.554;2023-12-20T07:54:18;100387.03;;;4.66;93.94
81509;BME280;70930;52.412;13.554;2023-12-20T07:56:44;100392.31;;;4.66;93.53
81509;BME280;70930;52.412;13.554;2023-12-20T07:59:09;100394.09;;;4.66;94.06
81509;BME280;70930;52.412;13.554;2023-12-20T08:01:35;100390.66;;;4.65;94.41
81509;BME280;70930;52.412;13.554;2023-12-20T08:04:00;100391.31;;;4.67;93.52
81509;BME280;70930;52.412;13.554;2023-12-20T08:06:25;100382.19;;;4.72;93.55
81509;BME280;70930;52.412;13.554;2023-12-20T08:08:51;100391.88;;;4.71;93.53
81509;BME280;70930;52.412;13.554;2023-12-20T08:11:16;100388.50;;;4.79;93.13
81509;BME280;70930;52.412;13.554;2023-12-20T08:13:41;100391.56;;;4.74;93.35
81509;BME280;70930;52.412;13.554;2023-12-20T08:16:07;100394.19;;;4.84;92.41
81509;BME280;70930;52.412;13.554;2023-12-20T08:18:32;100383.50;;;4.85;92.67
81509;BME280;70930;52.412;13.554;2023-12-20T08:20:57;100388.22;;;4.82;92.03
81509;BME280;70930;52.412;13.554;2023-12-20T08:23:23;100384.84;;;4.89;92.13
81509;BME280;70930;52.412;13.554;2023-12-20T08:25:48;100391.09;;;4.88;92.04
81509;BME280;70930;52.412;13.554;2023-12-20T08:28:14;100385.69;;;4.90;91.99
81509;BME280;70930;52.412;13.554;2023-12-20T08:30:39;100379.44;;;4.91;92.69
81509;BME280;70930;52.412;13.554;2023-12-20T08:33:06;100382.78;;;4.83;92.59
81509;BME280;70930;52.412;13.554;2023-12-20T08:35:36;100387.88;;;4.95;93.01
81509;BME280;70930;52.412;13.554;2023-12-20T08:38:01;100382.59;;;4.95;92.09
81509;BME280;70930;52.412;13.554;2023-12-20T08:40:26;100383.75;;;4.92;93.09
81509;BME280;70930;52.412;13.554;2023-12-20T08:42:51;100381.09;;;4.92;93.31
81509;BME280;70930;52.412;13.554;2023-12-20T08:45:17;100378.69;;;4.99;92.22
81509;BME280;70930;52.412;13.554;2023-12-20T08:47:42;100385.47;;;5.01;93.32
81509;BME280;70930;52.412;13.554;2023-12-20T08:50:10;100381.50;;;4.97;92.75
81509;BME280;70930;52.412;13.554;2023-12-20T08:52:35;100387.44;;;4.99;92.41
81509;BME280;70930;52.412;13.554;2023-12-20T08:55:01;100385.81;;;5.16;91.87
81509;BME280;70930;52.412;13.554;2023-12-20T08:57:26;100369.03;;;5.17;92.50
81509;BME280;70930;52.412;13.554;2023-12-20T08:59:51;100367.16;;;5.27;91.63
81509;BME280;70930;52.412;13.554;2023-12-20T09:02:17;100374.38;;;5.25;90.91
81509;BME280;70930;52.412;13.554;2023-12-20T09:04:43;100376.72;;;5.28;90.20
81509;BME280;70930;52.412;13.554;2023-12-20T09:07:24;100368.53;;;5.31;91.53
81509;BME280;70930;52.412;13.554;2023-12-20T09:09:50;100370.81;;;5.34;90.79
81509;BME280;70930;52.412;13.554;2023-12-20T09:12:18;100363.72;;;5.27;90.75
81509;BME280;70930;52.412;13.554;2023-12-20T09:14:43;100371.81;;;5.33;90.67
81509;BME280;70930;52.412;13.554;2023-12-20T09:17:09;100369.94;;;5.26;90.47
81509;BME280;70930;52.412;13.554;2023-12-20T09:19:36;100375.97;;;5.36;91.08
81509;BME280;70930;52.412;13.554;2023-12-20T09:22:02;100375.72;;;5.29;91.31
81509;BME280;70930;52.412;13.554;2023-12-20T09:24:27;100373.63;;;5.33;90.56
81509;BME280;70930;52.412;13.554;2023-12-20T09:26:52;100360.59;;;5.49;91.04
81509;BME280;70930;52.412;13.554;2023-12-20T09:29:18;100359.03;;;5.38;90.37
81509;BME280;70930;52.412;13.554;2023-12-20T09:31:44;100368.28;;;5.43;91.08
81509;BME280;70930;52.412;13.554;2023-12-20T09:34:11;100357.44;;;5.46;90.12
81509;BME280;70930;52.412;13.554;2023-12-20T09:36:36;100351.66;;;5.42;89.80
81509;BME280;70930;52.412;13.554;2023-12-20T09:39:04;100338.81;;;5.39;89.63
81509;BME280;70930;52.412;13.554;2023-12-20T09:41:32;100349.47;;;5.37;89.83
81509;BME280;70930;52.412;13.554;2023-12-20T09:44:02;100347.81;;;5.36;89.85
81509;BME280;70930;52.412;13.554;2023-12-20T09:46:28;100356.09;;;5.41;90.07
81509;BME280;70930;52.412;13.554;2023-12-20T09:48:59;100350.97;;;5.40;89.93
81509;BME280;70930;52.412;13.554;2023-12-20T09:51:28;100346.38;;;5.42;90.95
81509;BME280;70930;52.412;13.554;2023-12-20T09:53:54;100353.97;;;5.45;90.71
81509;BME280;70930;52.412;13.554;2023-12-20T09:56:20;100345.31;;;5.53;89.90
81509;BME280;70930;52.412;13.554;2023-12-20T09:58:46;100332.38;;;5.59;89.64
81509;BME280;70930;52.412;13.554;2023-12-20T10:01:12;100341.16;;;5.68;88.60
81509;BME280;70930;52.412;13.554;2023-12-20T10:03:39;100341.88;;;5.52;89.54
81509;BME280;70930;52.412;13.554;2023-12-20T10:06:06;100338.47;;;5.60;88.86
81509;BME280;70930;52.412;13.554;2023-12-20T10:08:32;100323.13;;;5.55;87.66
81509;BME280;70930;52.412;13.554;2023-12-20T10:10:57;100317.00;;;5.73;88.71
81509;BME280;70930;52.412;13.554;2023-12-20T10:13:27;100309.72;;;5.66;88.40
81509;BME280;70930;52.412;13.554;2023-12-20T10:15:55;100312.09;;;5.78;87.99
81509;BME280;70930;52.412;13.554;2023-12-20T10:18:20;100306.16;;;5.76;86.96
81509;BME280;70930;52.412;13.554;2023-12-20T10:20:46;100284.72;;;5.71;87.71
81509;BME280;70930;52.412;13.554;2023-12-20T10:23:12;100287.34;;;5.71;87.42
81509;BME280;70930;52.412;13.554;2023-12-20T10:25:39;100284.50;;;5.64;87.12
81509;BME280;70930;52.412;13.554;2023-12-20T10:30:36;100302.81;;;5.74;87.66
81509;BME280;70930;52.412;13.554;2023-12-20T10:33:01;100284.25;;;5.75;87.34
81509;BME280;70930;52.412;13.554;2023-12-20T10:35:26;100285.25;;;5.74;87.09
81509;BME280;70930;52.412;13.554;2023-12-20T10:37:55;100275.81;;;5.72;87.22
81509;BME280;70930;52.412;13.554;2023-12-20T10:40:21;100282.59;;;5.74;86.57
81509;BME280;70930;52.412;13.554;2023-12-20T10:42:48;100268.78;;;5.80;86.87
81509;BME280;70930;52.412;13.554;2023-12-20T10:45:15;100271.59;;;5.79;86.18
81509;BME280;70930;52.412;13.554;2023-12-20T10:47:44;100262.53;;;5.81;85.37
81509;BME280;70930;52.412;13.554;2023-12-20T10:50:11;100258.28;;;5.88;85.34
81509;BME280;70930;52.412;13.554;2023-12-20T10:52:37;100251.28;;;5.97;85.97
81509;BME280;70930;52.412;13.554;2023-12-20T10:55:03;100235.16;;;6.00;85.75
81509;BME280;70930;52.412;13.554;2023-12-20T10:57:29;100234.59;;;6.23;84.33
81509;BME280;70930;52.412;13.554;2023-12-20T10:59:56;100231.47;;;6.19;84.46
81509;BME280;70930;52.412;13.554;2023-12-20T11:02:26;100232.97;;;6.22;83.43
81509;BME280;70930;52.412;13.554;2023-12-20T11:04:55;100234.28;;;6.26;83.05
81509;BME280;70930;52.412;13.554;2023-12-20T11:07:35;100235.59;;;6.22;83.61
81509;BME280;70930;52.412;13.554;2023-12-20T11:10:31;100206.22;;;6.17;83.25
81509;BME280;70930;52.412;13.554;2023-12-20T11:13:12;100216.63;;;6.18;83.23
81509;BME280;70930;52.412;13.554;2023-12-20T11:15:42;100215.94;;;6.16;83.96
81509;BME280;70930;52.412;13.554;2023-12-20T11:18:08;100206.72;;;6.12;83.44
81509;BME280;70930;52.412;13.554;2023-12-20T11:20:38;100198.50;;;6.23;83.36
81509;BME280;70930;52.412;13.554;2023-12-20T11:23:05;100209.38;;;6.20;83.11
81509;BME280;70930;52.412;13.554;2023-12-20T11:25:46;100196.53;;;6.17;84.70
81509;BME280;70930;52.412;13.554;2023-12-20T11:28:12;100194.06;;;6.24;85.19
81509;BME280;70930;52.412;13.554;2023-12-20T11:30:57;100182.34;;;6.10;84.58
81509;BME280;70930;52.412;13.554;2023-12-20T11:33:46;100180.00;;;6.07;84.60
81509;BME280;70930;52.412;13.554;2023-12-20T11:36:19;100183.16;;;6.10;85.54
81509;BME280;70930;52.412;13.554;2023-12-20T11:38:54;100174.06;;;6.05;85.27
81509;BME280;70930;52.412;13.554;2023-12-20T11:41:22;100177.69;;;6.04;85.42
81509;BME280;70930;52.412;13.554;2023-12-20T11:43:48;100155.28;;;6.00;85.94
81509;BME280;70930;52.412;13.554;2023-12-20T11:46:14;100150.81;;;5.92;84.69
81509;BME280;70930;52.412;13.554;2023-12-20T11:48:39;100146.81;;;5.88;86.30
81509;BME280;70930;52.412;13.554;2023-12-20T11:51:12;100135.75;;;5.84;86.81
81509;BME280;70930;52.412;13.554;2023-12-20T11:53:38;100131.50;;;5.91;85.13
81509;BME280;70930;52.412;13.554;2023-12-20T11:56:06;100133.13;;;5.84;83.83
81509;BME280;70930;52.412;13.554;2023-12-20T11:58:33;100135.63;;;5.86;85.37
81509;BME280;70930;52.412;13.554;2023-12-20T12:00:58;100153.66;;;5.73;86.60
81509;BME280;70930;52.412;13.554;2023-12-20T12:03:23;100134.19;;;5.65;86.97
81509;BME280;70930;52.412;13.554;2023-12-20T12:05:49;100126.50;;;5.72;87.21
81509;BME280;70930;52.412;13.554;2023-12-20T12:08:15;100122.56;;;5.76;88.04
81509;BME280;70930;52.412;13.554;2023-12-20T12:10:40;100126.53;;;5.80;87.91
81509;BME280;70930;52.412;13.554;2023-12-20T12:13:06;100110.56;;;5.82;88.11
81509;BME280;70930;52.412;13.554;2023-12-20T12:15:31;100107.44;;;5.86;86.63
81509;BME280;70930;52.412;13.554;2023-12-20T12:17:57;100105.94;;;5.84;87.33
81509;BME280;70930;52.412;13.554;2023-12-20T12:20:23;100090.47;;;5.89;85.29
81509;BME280;70930;52.412;13.554;2023-12-20T12:23:00;100077.47;;;5.87;84.75
81509;BME280;70930;52.412;13.554;2023-12-20T12:25:26;100075.16;;;5.84;84.91
81509;BME280;70930;52.412;13.554;2023-12-20T12:27:52;100073.03;;;5.88;84.88
81509;BME280;70930;52.412;13.554;2023-12-20T12:30:17;100057.53;;;5.85;84.58
81509;BME280;70930;52.412;13.554;2023-12-20T12:32:47;100058.03;;;5.88;85.19
81509;BME280;70930;52.412;13.554;2023-12-20T12:35:13;100053.06;;;5.77;85.75
81509;BME280;70930;52.412;13.554;2023-12-20T12:37:40;100044.03;;;5.80;85.08
81509;BME280;70930;52.412;13.554;2023-12-20T12:40:09;100046.34;;;5.83;86.76
81509;BME280;70930;52.412;13.554;2023-12-20T12:42:35;100034.78;;;5.76;86.52
81509;BME280;70930;52.412;13.554;2023-12-20T12:45:00;100033.47;;;5.72;87.06
81509;BME280;70930;52.412;13.554;2023-12-20T12:47:25;100032.66;;;5.71;88.40